Terminal Aerodrome Forecast
Issued by NWS

Current Version | Previous Version | Graphics & Text | Print | Product List | Glossary On
Versions: 1 2 3 4 5 6 7 8 9 10 11 12 13 14 15 16 17 18 19 20 21
000
FTUS41 KILN 071600 AAC
TAFLUK
TAF AMD
KLUK 071635Z 0717/0812 21012KT P6SM VCSH SCT025 BKN035
      TEMPO 0720/0724 5SM -TSRA BR SCT008 OVC028CB
     FM080000 24008KT 5SM -SHRA BR VCTS OVC035CB
     FM081000 26010KT 5SM -SHRA BR OVC028=

USA.gov is the U.S. government's official web portal to all federal, state and local government web resources and services.